Ashwood, OR

4:31 AM PDT on September 17, 2014 (GMT -0700)
Grizzly Mt. SixSprings Ranch | Change Station
CLOSE
Current Station
Personal Weather Station
Location: GRIZZLY MOUNTAIN, OR
Elevation: 3891 ft
Nearby Weather Stations

Elev 3891 ft 44.48 °N, 120.90 °W | Updated 1 minute ago

Mostly Cloudy
Mostly Cloudy
61.2 °F
Feels Like 61.2 °F
N
1.0
Wind Variable Wind from SE
Gusts 3.0 mph

Today
High -- | Low -- °F
--% Chance of Precip.
Yesterday
High -- | Low -- °F
Precip. -- in
6:43 AM 7:09 PM
Last Quarter, 37% visible
Pressure 29.79 in
Visibility 10.0 miles
Clouds Clear
Dew Point 37 °F
Humidity 41%
Rainfall 0.00 in
Snow Depth 0 in , 0 in , 0 in
UV 0 out of 12
Pollen 2.40 out of 12
Air Quality Not available.
Flu Activity Not available.
METAR KRDM 171056Z AUTO 17005KT 10SM CLR 13/03 A2987 RMK AO2 SLP086 T01330028

More Conditions Fewer Conditions

Pressure 29.79 in
Visibility 10.0 miles
Clouds Clear
Dew Point 37 °F
Humidity 41%
Rainfall 0.00 in
Snow Depth 0 in , 0 in , 0 in
UV 0 out of 12
Pollen 2.40 out of 12
Air Quality Not available.
Flu Activity Not available.
METAR KRDM 171056Z AUTO 17005KT 10SM CLR 13/03 A2987 RMK AO2 SLP086 T01330028

More Conditions Fewer Conditions

10-Day Weather Forecast

Almanac

Astronomy

Sep. 17, 2014 Rise Set
Actual Time 6:43 AM PDT 7:09 PM PDT
Civil Twilight 6:14 AM PDT 7:38 PM PDT
Nautical Twilight 5:40 AM PDT 8:13 PM PDT
Astronomical Twilight 5:04 AM PDT 8:48 PM PDT
Moon 12:37 AM PDT 3:32 PM PDT
Length of Visible Light 13h 23m
Length of Day
12h 25m
Tomorrow will be 3m 4s shorter.
Last Quarter, 37% of the Moon is Illuminated
Today
Last Quarter
Sep 24
New
Oct 1
First Quarter
Oct 8
Full
Oct 15
Last Quarter

Today's Extremes

State Highs State Lows

Community

WunderPhotos

Upload Photos

1,754,003 photos uploaded!

Nearby

Snow Depth

Station Depth Elevation
Derr 0 in 5670 ft
Gold Center 0 in 5340 ft
Strawberry 0 in 5760 ft
Santiam Junction 0 in 3750 ft
Seine Creek 0 in 2000 ft

Earthquake Activity

City Distance Mag. Time & Date
Morton, Washington 140 miles 3.0 5:43 AM PDT
2014-09-16
Minimum magnitude displayed is 2.5.

Coastal Water Temperatures

Place Temperature
No Stations Reporting

Nearby Weather Stations